sensor_id;sensor_type;location;lat;lon;timestamp;pressure;altitude;pressure_sealevel;temperature;humidity
15670;BME280;18524;45.190;5.732;2023-04-26T00:00:43;99090.25;;;12.67;68.29
15670;BME280;18524;45.190;5.732;2023-04-26T00:05:34;99100.34;;;12.62;66.77
15670;BME280;18524;45.190;5.732;2023-04-26T00:10:26;99097.06;;;12.70;66.90
15670;BME280;18524;45.190;5.732;2023-04-26T00:15:17;99097.72;;;12.52;68.78
15670;BME280;18524;45.190;5.732;2023-04-26T00:20:08;99105.88;;;12.49;69.66
15670;BME280;18524;45.190;5.732;2023-04-26T00:25:00;99105.03;;;12.49;69.77
15670;BME280;18524;45.190;5.732;2023-04-26T00:29:51;99124.28;;;12.40;68.35
15670;BME280;18524;45.190;5.732;2023-04-26T00:34:41;99124.09;;;12.22;69.86
15670;BME280;18524;45.190;5.732;2023-04-26T00:39:32;99117.84;;;12.23;69.94
15670;BME280;18524;45.190;5.732;2023-04-26T00:44:22;99115.06;;;12.05;69.77
15670;BME280;18524;45.190;5.732;2023-04-26T00:49:15;99124.31;;;12.00;70.54
15670;BME280;18524;45.190;5.732;2023-04-26T00:54:07;99130.53;;;11.99;71.11
15670;BME280;18524;45.190;5.732;2023-04-26T00:58:57;99139.41;;;12.07;72.31
15670;BME280;18524;45.190;5.732;2023-04-26T01:03:49;99142.34;;;12.14;74.47
15670;BME280;18524;45.190;5.732;2023-04-26T01:08:40;99149.53;;;11.81;73.51
15670;BME280;18524;45.190;5.732;2023-04-26T01:13:31;99151.13;;;11.73;74.23
15670;BME280;18524;45.190;5.732;2023-04-26T01:18:21;99149.41;;;11.62;75.61
15670;BME280;18524;45.190;5.732;2023-04-26T01:23:12;99152.16;;;11.61;76.54
15670;BME280;18524;45.190;5.732;2023-04-26T01:28:02;99158.38;;;11.59;76.90
15670;BME280;18524;45.190;5.732;2023-04-26T01:32:52;99162.50;;;11.52;77.47
15670;BME280;18524;45.190;5.732;2023-04-26T01:37:43;99165.03;;;11.43;78.50
15670;BME280;18524;45.190;5.732;2023-04-26T01:42:33;99154.59;;;11.32;79.30
15670;BME280;18524;45.190;5.732;2023-04-26T01:47:24;99150.75;;;11.15;80.32
15670;BME280;18524;45.190;5.732;2023-04-26T01:52:15;99148.38;;;11.12;80.31
15670;BME280;18524;45.190;5.732;2023-04-26T01:57:05;99147.22;;;11.05;81.70
15670;BME280;18524;45.190;5.732;2023-04-26T02:01:56;99153.28;;;11.05;81.07
15670;BME280;18524;45.190;5.732;2023-04-26T02:06:46;99158.09;;;11.00;81.00
15670;BME280;18524;45.190;5.732;2023-04-26T02:11:37;99151.09;;;10.89;80.97
15670;BME280;18524;45.190;5.732;2023-04-26T02:16:27;99147.78;;;10.87;82.02
15670;BME280;18524;45.190;5.732;2023-04-26T02:21:18;99139.72;;;10.79;81.70
15670;BME280;18524;45.190;5.732;2023-04-26T02:26:08;99142.09;;;10.71;80.83
15670;BME280;18524;45.190;5.732;2023-04-26T02:30:58;99140.97;;;10.53;81.80
15670;BME280;18524;45.190;5.732;2023-04-26T02:35:49;99145.94;;;10.67;80.70
15670;BME280;18524;45.190;5.732;2023-04-26T02:40:39;99139.88;;;10.55;81.76
15670;BME280;18524;45.190;5.732;2023-04-26T02:45:29;99145.88;;;10.46;81.48
15670;BME280;18524;45.190;5.732;2023-04-26T02:50:20;99140.25;;;10.40;82.05
15670;BME280;18524;45.190;5.732;2023-04-26T02:55:11;99130.47;;;10.53;84.12
15670;BME280;18524;45.190;5.732;2023-04-26T03:00:01;99128.56;;;10.55;83.15
15670;BME280;18524;45.190;5.732;2023-04-26T03:04:52;99124.06;;;10.46;83.79
15670;BME280;18524;45.190;5.732;2023-04-26T03:09:42;99122.28;;;10.35;84.31
15670;BME280;18524;45.190;5.732;2023-04-26T03:14:33;99131.56;;;10.39;84.32
15670;BME280;18524;45.190;5.732;2023-04-26T03:19:24;99130.03;;;10.37;85.98
15670;BME280;18524;45.190;5.732;2023-04-26T03:24:14;99127.78;;;10.32;87.24
15670;BME280;18524;45.190;5.732;2023-04-26T03:29:05;99136.34;;;10.34;87.56
15670;BME280;18524;45.190;5.732;2023-04-26T03:33:56;99142.66;;;10.31;86.41
15670;BME280;18524;45.190;5.732;2023-04-26T03:38:46;99132.44;;;10.17;86.55
15670;BME280;18524;45.190;5.732;2023-04-26T03:43:37;99133.72;;;10.00;88.35
15670;BME280;18524;45.190;5.732;2023-04-26T03:48:27;99142.78;;;9.85;89.42
15670;BME280;18524;45.190;5.732;2023-04-26T03:53:18;99134.81;;;9.76;90.31
15670;BME280;18524;45.190;5.732;2023-04-26T03:58:08;99140.25;;;9.50;91.79
15670;BME280;18524;45.190;5.732;2023-04-26T04:02:58;99134.22;;;9.72;91.34
15670;BME280;18524;45.190;5.732;2023-04-26T04:07:49;99129.00;;;9.72;91.57
15670;BME280;18524;45.190;5.732;2023-04-26T04:12:39;99142.31;;;9.69;92.03
15670;BME280;18524;45.190;5.732;2023-04-26T04:17:29;99138.88;;;9.68;91.50
15670;BME280;18524;45.190;5.732;2023-04-26T04:22:20;99137.22;;;9.67;91.43
15670;BME280;18524;45.190;5.732;2023-04-26T04:27:10;99150.38;;;9.66;90.20
15670;BME280;18524;45.190;5.732;2023-04-26T04:32:01;99156.44;;;9.55;92.03
15670;BME280;18524;45.190;5.732;2023-04-26T04:36:51;99160.25;;;9.62;92.74
15670;BME280;18524;45.190;5.732;2023-04-26T04:41:42;99158.25;;;9.66;92.25
15670;BME280;18524;45.190;5.732;2023-04-26T04:46:42;99169.94;;;9.73;92.02
15670;BME280;18524;45.190;5.732;2023-04-26T04:51:32;99172.91;;;9.80;91.30
15670;BME280;18524;45.190;5.732;2023-04-26T04:56:23;99175.91;;;9.86;90.86
15670;BME280;18524;45.190;5.732;2023-04-26T05:01:15;99179.09;;;9.79;91.33
15670;BME280;18524;45.190;5.732;2023-04-26T05:06:05;99196.00;;;9.75;91.35
15670;BME280;18524;45.190;5.732;2023-04-26T05:10:55;99197.44;;;9.67;92.27
15670;BME280;18524;45.190;5.732;2023-04-26T05:15:46;99201.72;;;9.91;92.00
15670;BME280;18524;45.190;5.732;2023-04-26T05:20:37;99211.03;;;9.95;90.05
15670;BME280;18524;45.190;5.732;2023-04-26T05:25:28;99212.69;;;9.96;90.86
15670;BME280;18524;45.190;5.732;2023-04-26T05:30:18;99220.09;;;10.13;90.57
15670;BME280;18524;45.190;5.732;2023-04-26T05:35:08;99220.09;;;10.36;89.17
15670;BME280;18524;45.190;5.732;2023-04-26T05:39:59;99227.84;;;10.59;85.75
15670;BME280;18524;45.190;5.732;2023-04-26T05:44:49;99230.03;;;10.43;87.73
15670;BME280;18524;45.190;5.732;2023-04-26T05:49:39;99226.91;;;10.49;87.14
15670;BME280;18524;45.190;5.732;2023-04-26T05:54:30;99224.69;;;10.88;85.43
15670;BME280;18524;45.190;5.732;2023-04-26T05:59:20;99222.66;;;11.23;83.12
15670;BME280;18524;45.190;5.732;2023-04-26T06:04:11;99217.44;;;11.86;80.42
15670;BME280;18524;45.190;5.732;2023-04-26T06:09:01;99230.44;;;12.08;77.58
15670;BME280;18524;45.190;5.732;2023-04-26T06:13:52;99222.41;;;12.31;76.06
15670;BME280;18524;45.190;5.732;2023-04-26T06:18:42;99220.59;;;12.91;72.95
15670;BME280;18524;45.190;5.732;2023-04-26T06:23:32;99226.50;;;13.23;70.36
15670;BME280;18524;45.190;5.732;2023-04-26T06:28:23;99227.28;;;13.04;70.25
15670;BME280;18524;45.190;5.732;2023-04-26T06:33:13;99219.00;;;13.48;68.73
15670;BME280;18524;45.190;5.732;2023-04-26T06:38:03;99218.88;;;14.15;66.45
15670;BME280;18524;45.190;5.732;2023-04-26T06:42:55;99220.94;;;14.12;65.25
15670;BME280;18524;45.190;5.732;2023-04-26T06:47:46;99209.50;;;14.30;63.88
15670;BME280;18524;45.190;5.732;2023-04-26T06:52:36;99213.50;;;14.34;62.47
15670;BME280;18524;45.190;5.732;2023-04-26T06:57:27;99218.88;;;14.52;61.05
15670;BME280;18524;45.190;5.732;2023-04-26T07:02:17;99219.88;;;14.51;61.02
15670;BME280;18524;45.190;5.732;2023-04-26T07:07:07;99203.97;;;14.61;59.64
15670;BME280;18524;45.190;5.732;2023-04-26T07:11:58;99207.19;;;15.00;58.44
15670;BME280;18524;45.190;5.732;2023-04-26T07:16:48;99201.72;;;14.84;58.92
15670;BME280;18524;45.190;5.732;2023-04-26T07:21:38;99204.34;;;15.29;56.48
15670;BME280;18524;45.190;5.732;2023-04-26T07:26:29;99204.31;;;15.47;56.97
15670;BME280;18524;45.190;5.732;2023-04-26T07:31:19;99188.50;;;15.55;55.80
15670;BME280;18524;45.190;5.732;2023-04-26T07:36:10;99191.34;;;15.79;54.25
15670;BME280;18524;45.190;5.732;2023-04-26T07:41:01;99178.59;;;16.01;52.39
15670;BME280;18524;45.190;5.732;2023-04-26T07:45:51;99179.03;;;16.22;50.29
15670;BME280;18524;45.190;5.732;2023-04-26T07:50:41;99171.06;;;16.56;48.64
15670;BME280;18524;45.190;5.732;2023-04-26T07:55:32;99166.69;;;16.81;48.28
15670;BME280;18524;45.190;5.732;2023-04-26T08:00:23;99159.78;;;17.29;46.58
15670;BME280;18524;45.190;5.732;2023-04-26T08:05:14;99168.56;;;17.29;45.37
15670;BME280;18524;45.190;5.732;2023-04-26T08:10:06;99155.31;;;17.29;45.42
15670;BME280;18524;45.190;5.732;2023-04-26T08:14:59;99156.13;;;17.54;45.35
15670;BME280;18524;45.190;5.732;2023-04-26T08:19:50;99159.38;;;17.97;43.61
15670;BME280;18524;45.190;5.732;2023-04-26T08:24:40;99156.97;;;18.26;42.93
15670;BME280;18524;45.190;5.732;2023-04-26T08:29:30;99158.19;;;18.07;43.19
15670;BME280;18524;45.190;5.732;2023-04-26T08:34:21;99161.81;;;18.62;42.65
15670;BME280;18524;45.190;5.732;2023-04-26T08:39:11;99162.53;;;18.79;42.06
15670;BME280;18524;45.190;5.732;2023-04-26T08:44:05;99164.78;;;19.13;41.17
15670;BME280;18524;45.190;5.732;2023-04-26T08:49:08;99157.16;;;19.32;40.48
15670;BME280;18524;45.190;5.732;2023-04-26T08:54:03;99163.25;;;19.41;40.41
15670;BME280;18524;45.190;5.732;2023-04-26T08:58:54;99164.44;;;19.91;39.86
15670;BME280;18524;45.190;5.732;2023-04-26T09:03:44;99157.00;;;20.30;38.79
15670;BME280;18524;45.190;5.732;2023-04-26T09:08:39;99163.16;;;20.31;37.08
15670;BME280;18524;45.190;5.732;2023-04-26T09:13:30;99155.75;;;20.12;37.53
15670;BME280;18524;45.190;5.732;2023-04-26T09:18:22;99144.94;;;20.64;36.66
15670;BME280;18524;45.190;5.732;2023-04-26T09:23:12;99144.28;;;21.19;36.44
15670;BME280;18524;45.190;5.732;2023-04-26T09:28:04;99133.66;;;21.05;35.97
15670;BME280;18524;45.190;5.732;2023-04-26T09:33:07;99130.94;;;20.98;35.41
15670;BME280;18524;45.190;5.732;2023-04-26T09:38:03;99134.25;;;21.00;34.18
15670;BME280;18524;45.190;5.732;2023-04-26T09:43:07;99126.63;;;21.40;33.69
15670;BME280;18524;45.190;5.732;2023-04-26T09:53:34;99119.41;;;22.31;31.98
15670;BME280;18524;45.190;5.732;2023-04-26T09:58:28;99115.31;;;22.35;31.43
15670;BME280;18524;45.190;5.732;2023-04-26T10:03:19;99109.97;;;22.41;31.51
15670;BME280;18524;45.190;5.732;2023-04-26T10:08:12;99102.81;;;22.55;32.35
15670;BME280;18524;45.190;5.732;2023-04-26T10:13:04;99096.16;;;23.12;31.29
15670;BME280;18524;45.190;5.732;2023-04-26T10:17:55;99090.56;;;23.73;30.63
15670;BME280;18524;45.190;5.732;2023-04-26T10:22:50;99086.50;;;24.28;30.35
15670;BME280;18524;45.190;5.732;2023-04-26T10:32:32;99070.81;;;24.32;28.59
15670;BME280;18524;45.190;5.732;2023-04-26T10:48:21;99032.25;;;24.65;26.38
15670;BME280;18524;45.190;5.732;2023-04-26T10:53:12;99038.34;;;24.47;27.04
15670;BME280;18524;45.190;5.732;2023-04-26T11:03:21;99015.41;;;24.57;27.09
15670;BME280;18524;45.190;5.732;2023-04-26T11:08:30;99010.75;;;25.21;27.43
15670;BME280;18524;45.190;5.732;2023-04-26T11:13:21;98995.47;;;25.65;26.54
15670;BME280;18524;45.190;5.732;2023-04-26T11:18:11;98988.38;;;26.18;26.77
15670;BME280;18524;45.190;5.732;2023-04-26T11:23:02;98986.91;;;26.76;24.48
15670;BME280;18524;45.190;5.732;2023-04-26T11:27:59;98982.63;;;26.87;24.63
15670;BME280;18524;45.190;5.732;2023-04-26T11:32:51;98975.97;;;27.13;23.18
15670;BME280;18524;45.190;5.732;2023-04-26T11:37:41;98971.34;;;27.48;22.79
15670;BME280;18524;45.190;5.732;2023-04-26T11:42:31;98973.22;;;27.71;23.81
15670;BME280;18524;45.190;5.732;2023-04-26T11:47:22;98961.63;;;27.70;22.64
15670;BME280;18524;45.190;5.732;2023-04-26T11:52:13;98955.69;;;27.97;22.21
15670;BME280;18524;45.190;5.732;2023-04-26T11:57:16;98932.97;;;28.55;17.90
15670;BME280;18524;45.190;5.732;2023-04-26T12:02:07;98936.75;;;28.54;19.24
15670;BME280;18524;45.190;5.732;2023-04-26T12:06:57;98936.75;;;28.87;18.11
15670;BME280;18524;45.190;5.732;2023-04-26T12:12:02;98926.94;;;28.98;15.69
15670;BME280;18524;45.190;5.732;2023-04-26T12:16:58;98928.91;;;28.86;16.53
15670;BME280;18524;45.190;5.732;2023-04-26T12:21:48;98924.09;;;28.88;15.99
15670;BME280;18524;45.190;5.732;2023-04-26T12:26:43;98927.03;;;28.86;16.50
15670;BME280;18524;45.190;5.732;2023-04-26T12:31:33;98924.47;;;28.80;17.71
15670;BME280;18524;45.190;5.732;2023-04-26T12:36:24;98914.25;;;28.99;17.01
15670;BME280;18524;45.190;5.732;2023-04-26T12:41:15;98908.03;;;28.81;20.00
15670;BME280;18524;45.190;5.732;2023-04-26T12:46:06;98907.00;;;28.66;18.54
15670;BME280;18524;45.190;5.732;2023-04-26T12:50:56;98902.31;;;28.61;18.92
15670;BME280;18524;45.190;5.732;2023-04-26T12:55:46;98892.00;;;28.75;18.89
15670;BME280;18524;45.190;5.732;2023-04-26T13:00:37;98893.19;;;28.62;18.47
15670;BME280;18524;45.190;5.732;2023-04-26T13:05:27;98885.22;;;28.55;18.41
15670;BME280;18524;45.190;5.732;2023-04-26T13:10:18;98872.72;;;28.49;19.24
15670;BME280;18524;45.190;5.732;2023-04-26T13:15:09;98871.09;;;28.48;17.25
15670;BME280;18524;45.190;5.732;2023-04-26T13:20:00;98871.13;;;28.03;16.94
15670;BME280;18524;45.190;5.732;2023-04-26T13:24:50;98862.19;;;27.86;18.42
15670;BME280;18524;45.190;5.732;2023-04-26T13:29:41;98880.72;;;27.54;16.47
15670;BME280;18524;45.190;5.732;2023-04-26T13:34:31;98886.91;;;27.02;18.58
15670;BME280;18524;45.190;5.732;2023-04-26T13:39:23;98864.56;;;26.43;18.06
15670;BME280;18524;45.190;5.732;2023-04-26T13:44:13;98878.72;;;26.09;17.01
15670;BME280;18524;45.190;5.732;2023-04-26T13:49:04;98867.34;;;25.65;16.06
15670;BME280;18524;45.190;5.732;2023-04-26T13:53:56;98870.50;;;25.25;17.10
15670;BME280;18524;45.190;5.732;2023-04-26T13:58:46;98877.66;;;24.95;16.60
15670;BME280;18524;45.190;5.732;2023-04-26T14:03:36;98873.75;;;24.73;17.02
15670;BME280;18524;45.190;5.732;2023-04-26T14:08:27;98859.53;;;24.47;16.89
15670;BME280;18524;45.190;5.732;2023-04-26T14:13:17;98855.28;;;24.40;16.99
15670;BME280;18524;45.190;5.732;2023-04-26T14:18:07;98851.88;;;24.26;17.47
15670;BME280;18524;45.190;5.732;2023-04-26T14:22:58;98865.91;;;24.28;17.01
15670;BME280;18524;45.190;5.732;2023-04-26T14:27:48;98867.84;;;24.39;18.02
15670;BME280;18524;45.190;5.732;2023-04-26T14:32:38;98872.47;;;24.32;20.87
15670;BME280;18524;45.190;5.732;2023-04-26T14:37:30;98876.13;;;24.38;22.82
15670;BME280;18524;45.190;5.732;2023-04-26T14:42:20;98885.28;;;24.23;23.28
15670;BME280;18524;45.190;5.732;2023-04-26T14:47:11;98880.34;;;24.20;22.37
15670;BME280;18524;45.190;5.732;2023-04-26T14:52:01;98877.59;;;24.02;23.67
15670;BME280;18524;45.190;5.732;2023-04-26T14:56:53;98877.63;;;23.95;22.55
15670;BME280;18524;45.190;5.732;2023-04-26T15:01:43;98890.47;;;23.87;22.94
15670;BME280;18524;45.190;5.732;2023-04-26T15:06:33;98881.88;;;23.72;22.84
15670;BME280;18524;45.190;5.732;2023-04-26T15:11:24;98876.75;;;23.70;21.93
15670;BME280;18524;45.190;5.732;2023-04-26T15:16:14;98874.97;;;23.51;23.33
15670;BME280;18524;45.190;5.732;2023-04-26T15:21:05;98875.50;;;23.73;24.02
15670;BME280;18524;45.190;5.732;2023-04-26T15:26:00;98875.66;;;23.84;24.17
15670;BME280;18524;45.190;5.732;2023-04-26T15:30:51;98888.28;;;23.70;25.09
15670;BME280;18524;45.190;5.732;2023-04-26T15:35:50;98886.47;;;23.64;25.31
15670;BME280;18524;45.190;5.732;2023-04-26T15:40:40;98887.88;;;23.67;25.02
15670;BME280;18524;45.190;5.732;2023-04-26T15:45:30;98881.38;;;23.50;26.59
15670;BME280;18524;45.190;5.732;2023-04-26T15:50:21;98883.22;;;23.49;25.93
15670;BME280;18524;45.190;5.732;2023-04-26T15:55:11;98878.75;;;23.30;25.93
15670;BME280;18524;45.190;5.732;2023-04-26T16:00:02;98880.69;;;23.03;26.58
15670;BME280;18524;45.190;5.732;2023-04-26T16:04:54;98873.94;;;22.94;27.00
15670;BME280;18524;45.190;5.732;2023-04-26T16:09:45;98871.91;;;22.83;27.08
15670;BME280;18524;45.190;5.732;2023-04-26T16:14:35;98876.66;;;22.81;27.43
15670;BME280;18524;45.190;5.732;2023-04-26T16:19:26;98869.84;;;22.71;27.40
15670;BME280;18524;45.190;5.732;2023-04-26T16:24:18;98872.31;;;22.73;28.20
15670;BME280;18524;45.190;5.732;2023-04-26T16:29:09;98875.38;;;22.76;28.57
15670;BME280;18524;45.190;5.732;2023-04-26T16:33:59;98873.31;;;22.65;29.09
15670;BME280;18524;45.190;5.732;2023-04-26T16:38:49;98876.63;;;22.61;29.15
15670;BME280;18524;45.190;5.732;2023-04-26T16:43:40;98882.19;;;22.59;29.23
15670;BME280;18524;45.190;5.732;2023-04-26T16:48:32;98892.88;;;22.46;30.28
15670;BME280;18524;45.190;5.732;2023-04-26T16:53:22;98887.97;;;22.43;30.40
15670;BME280;18524;45.190;5.732;2023-04-26T16:58:12;98886.72;;;22.39;30.12
15670;BME280;18524;45.190;5.732;2023-04-26T17:03:03;98883.44;;;22.37;31.28
15670;BME280;18524;45.190;5.732;2023-04-26T17:07:53;98877.88;;;22.25;31.45
15670;BME280;18524;45.190;5.732;2023-04-26T17:12:44;98884.66;;;22.14;30.98
15670;BME280;18524;45.190;5.732;2023-04-26T17:17:35;98884.41;;;22.03;29.62
15670;BME280;18524;45.190;5.732;2023-04-26T17:22:25;98881.50;;;21.91;29.40
15670;BME280;18524;45.190;5.732;2023-04-26T17:27:15;98891.94;;;21.79;29.74
15670;BME280;18524;45.190;5.732;2023-04-26T17:32:07;98891.50;;;21.63;30.14
15670;BME280;18524;45.190;5.732;2023-04-26T17:36:57;98896.66;;;21.64;30.35
15670;BME280;18524;45.190;5.732;2023-04-26T17:41:47;98891.84;;;21.53;30.81
15670;BME280;18524;45.190;5.732;2023-04-26T17:46:38;98904.34;;;21.46;30.50
15670;BME280;18524;45.190;5.732;2023-04-26T17:51:28;98904.13;;;21.41;31.30
15670;BME280;18524;45.190;5.732;2023-04-26T17:56:19;98906.78;;;21.34;32.23
15670;BME280;18524;45.190;5.732;2023-04-26T18:01:09;98899.38;;;21.30;32.18
15670;BME280;18524;45.190;5.732;2023-04-26T18:06:00;98908.34;;;21.22;32.45
15670;BME280;18524;45.190;5.732;2023-04-26T18:10:50;98916.75;;;21.19;31.64
15670;BME280;18524;45.190;5.732;2023-04-26T18:15:42;98918.88;;;21.02;31.75
15670;BME280;18524;45.190;5.732;2023-04-26T18:20:34;98930.13;;;20.98;32.16
15670;BME280;18524;45.190;5.732;2023-04-26T18:25:26;98927.78;;;20.81;32.49
15670;BME280;18524;45.190;5.732;2023-04-26T18:30:16;98919.44;;;20.63;34.15
15670;BME280;18524;45.190;5.732;2023-04-26T18:35:07;98935.19;;;20.58;34.94
15670;BME280;18524;45.190;5.732;2023-04-26T18:39:58;98925.06;;;20.47;36.31
15670;BME280;18524;45.190;5.732;2023-04-26T18:44:49;98933.25;;;20.45;37.73
15670;BME280;18524;45.190;5.732;2023-04-26T18:49:39;98938.84;;;20.36;38.12
15670;BME280;18524;45.190;5.732;2023-04-26T18:54:30;98941.63;;;20.27;38.22
15670;BME280;18524;45.190;5.732;2023-04-26T18:59:22;98943.41;;;20.20;38.06
15670;BME280;18524;45.190;5.732;2023-04-26T19:04:12;98944.19;;;20.14;37.09
15670;BME280;18524;45.190;5.732;2023-04-26T19:09:02;98958.97;;;20.02;37.19
15670;BME280;18524;45.190;5.732;2023-04-26T19:13:55;98961.38;;;19.97;38.33
15670;BME280;18524;45.190;5.732;2023-04-26T19:18:45;98968.84;;;19.87;38.91
15670;BME280;18524;45.190;5.732;2023-04-26T19:23:36;98970.44;;;19.81;39.17
15670;BME280;18524;45.190;5.732;2023-04-26T19:28:27;98987.59;;;19.79;40.01
15670;BME280;18524;45.190;5.732;2023-04-26T19:33:17;98984.56;;;19.67;40.70
15670;BME280;18524;45.190;5.732;2023-04-26T19:38:07;98992.47;;;19.60;41.00
15670;BME280;18524;45.190;5.732;2023-04-26T19:42:58;98996.78;;;19.47;41.24
15670;BME280;18524;45.190;5.732;2023-04-26T19:47:49;98997.53;;;19.55;40.63
15670;BME280;18524;45.190;5.732;2023-04-26T19:52:39;99007.50;;;19.39;40.64
15670;BME280;18524;45.190;5.732;2023-04-26T19:57:30;99007.06;;;19.35;42.32
15670;BME280;18524;45.190;5.732;2023-04-26T20:02:20;99011.72;;;19.33;41.16
15670;BME280;18524;45.190;5.732;2023-04-26T20:07:10;99009.13;;;19.25;41.73
15670;BME280;18524;45.190;5.732;2023-04-26T20:12:01;99011.44;;;19.13;42.03
15670;BME280;18524;45.190;5.732;2023-04-26T20:16:52;99016.47;;;19.08;42.56
15670;BME280;18524;45.190;5.732;2023-04-26T20:21:43;99010.22;;;19.01;43.17
15670;BME280;18524;45.190;5.732;2023-04-26T20:26:33;99009.75;;;18.97;43.88
15670;BME280;18524;45.190;5.732;2023-04-26T20:31:23;99014.31;;;18.89;44.21
15670;BME280;18524;45.190;5.732;2023-04-26T20:36:14;99014.56;;;18.79;44.62
15670;BME280;18524;45.190;5.732;2023-04-26T20:41:04;99011.25;;;18.77;44.39
15670;BME280;18524;45.190;5.732;2023-04-26T20:45:54;99018.47;;;18.68;44.88
15670;BME280;18524;45.190;5.732;2023-04-26T20:50:45;99034.22;;;18.70;45.17
15670;BME280;18524;45.190;5.732;2023-04-26T20:55:35;99016.03;;;18.59;44.56
15670;BME280;18524;45.190;5.732;2023-04-26T21:00:25;99014.53;;;18.56;44.36
15670;BME280;18524;45.190;5.732;2023-04-26T21:05:16;99015.06;;;18.52;44.93
15670;BME280;18524;45.190;5.732;2023-04-26T21:10:07;99018.31;;;18.39;45.80
15670;BME280;18524;45.190;5.732;2023-04-26T21:14:57;99022.56;;;18.25;46.32
15670;BME280;18524;45.190;5.732;2023-04-26T21:19:47;99030.53;;;18.25;46.50
15670;BME280;18524;45.190;5.732;2023-04-26T21:24:38;99037.84;;;18.23;47.91
15670;BME280;18524;45.190;5.732;2023-04-26T21:29:29;99020.41;;;18.21;48.37
15670;BME280;18524;45.190;5.732;2023-04-26T21:34:20;99034.53;;;18.21;48.73
15670;BME280;18524;45.190;5.732;2023-04-26T21:39:11;99046.47;;;18.17;48.63
15670;BME280;18524;45.190;5.732;2023-04-26T21:44:01;99049.31;;;18.16;48.83
15670;BME280;18524;45.190;5.732;2023-04-26T21:48:51;99044.88;;;18.08;48.30
15670;BME280;18524;45.190;5.732;2023-04-26T21:53:42;99047.22;;;18.03;49.33
15670;BME280;18524;45.190;5.732;2023-04-26T21:58:33;99045.19;;;18.13;49.46
15670;BME280;18524;45.190;5.732;2023-04-26T22:03:23;99036.31;;;17.98;49.22
15670;BME280;18524;45.190;5.732;2023-04-26T22:08:14;99028.88;;;17.93;49.93
15670;BME280;18524;45.190;5.732;2023-04-26T22:13:04;99028.91;;;17.85;50.24
15670;BME280;18524;45.190;5.732;2023-04-26T22:17:54;99035.38;;;17.83;51.06
15670;BME280;18524;45.190;5.732;2023-04-26T22:22:45;99039.88;;;17.74;50.82
15670;BME280;18524;45.190;5.732;2023-04-26T22:27:35;99035.75;;;17.71;50.76
15670;BME280;18524;45.190;5.732;2023-04-26T22:32:26;99040.41;;;17.69;50.89
15670;BME280;18524;45.190;5.732;2023-04-26T22:37:16;99056.97;;;17.63;51.18
15670;BME280;18524;45.190;5.732;2023-04-26T22:42:06;99068.59;;;17.62;52.34
15670;BME280;18524;45.190;5.732;2023-04-26T22:46:57;99068.59;;;17.62;52.83
15670;BME280;18524;45.190;5.732;2023-04-26T22:51:48;99073.06;;;17.62;52.06
15670;BME280;18524;45.190;5.732;2023-04-26T22:56:38;99081.19;;;17.60;51.37
15670;BME280;18524;45.190;5.732;2023-04-26T23:01:29;99076.41;;;17.56;51.52
15670;BME280;18524;45.190;5.732;2023-04-26T23:06:20;99084.50;;;17.46;51.02
15670;BME280;18524;45.190;5.732;2023-04-26T23:11:11;99090.16;;;17.51;52.11
15670;BME280;18524;45.190;5.732;2023-04-26T23:16:02;99101.41;;;17.45;52.28
15670;BME280;18524;45.190;5.732;2023-04-26T23:20:53;99097.78;;;17.38;52.48
15670;BME280;18524;45.190;5.732;2023-04-26T23:25:44;99096.78;;;17.39;53.59
15670;BME280;18524;45.190;5.732;2023-04-26T23:30:34;99105.13;;;17.11;54.72
15670;BME280;18524;45.190;5.732;2023-04-26T23:35:25;99111.09;;;17.13;54.75
15670;BME280;18524;45.190;5.732;2023-04-26T23:40:15;99101.13;;;17.07;55.45
15670;BME280;18524;45.190;5.732;2023-04-26T23:45:06;99119.50;;;17.01;56.95
15670;BME280;18524;45.190;5.732;2023-04-26T23:49:57;99116.34;;;16.73;58.06
15670;BME280;18524;45.190;5.732;2023-04-26T23:54:47;99121.25;;;16.60;58.98
15670;BME280;18524;45.190;5.732;2023-04-26T23:59:37;99125.59;;;16.69;57.83
